Terminal Aerodrome Forecast
Issued by NWS

Home | Current Version | Previous Version | Graphics & Text | Print | Product List | Glossary On
Versions: 1 2 3 4 5 6 7 8 9 10 11 12 13 14 15 16 17
800
FTUS43 KBIS 081137
TAFDIK
TAF
KDIK 081137Z 0812/0912 30014KT P6SM FEW250
     FM081700 30018G27KT P6SM SCT150
     FM090100 30010KT P6SM SCT200=

USA.gov is the U.S. government's official web portal to all federal, state and local government web resources and services.